createdAt,value
2018-05-18T00:00:07.535Z,11.14
2018-05-18T00:01:07.599Z,11.13
2018-05-18T00:02:07.639Z,11.13
2018-05-18T00:03:07.583Z,11.13
2018-05-18T00:04:07.541Z,11.11
2018-05-18T00:05:07.609Z,11.09
2018-05-18T00:06:07.595Z,11.07
2018-05-18T00:07:07.625Z,11.07
2018-05-18T00:08:07.580Z,11.07
2018-05-18T00:09:07.628Z,11.05
2018-05-18T00:10:07.653Z,11.03
2018-05-18T00:11:07.584Z,11.03
2018-05-18T00:12:07.767Z,11.03
2018-05-18T00:13:07.571Z,11.06
2018-05-18T00:14:07.632Z,11.03
2018-05-18T00:15:07.588Z,11.03
2018-05-18T00:16:07.629Z,11.02
2018-05-18T00:17:07.544Z,11.03
2018-05-18T00:18:07.660Z,11.03
2018-05-18T00:19:07.666Z,11.03
2018-05-18T00:20:07.612Z,11.03
2018-05-18T00:21:07.703Z,11.05
2018-05-18T00:22:07.663Z,11.03
2018-05-18T00:23:07.667Z,11.02
2018-05-18T00:24:07.637Z,11.02
2018-05-18T00:25:07.616Z,11.03
2018-05-18T00:26:07.614Z,11.03
2018-05-18T00:27:07.603Z,11.00
2018-05-18T00:28:07.611Z,11.00
2018-05-18T00:29:07.682Z,10.97
2018-05-18T00:30:07.569Z,10.97
2018-05-18T00:31:07.617Z,10.98
2018-05-18T00:32:07.680Z,10.98
2018-05-18T00:33:07.617Z,10.97
2018-05-18T00:34:07.603Z,10.98
2018-05-18T00:35:07.723Z,11.00
2018-05-18T00:36:07.681Z,11.00
2018-05-18T00:37:07.618Z,11.00
2018-05-18T00:38:07.626Z,10.98
2018-05-18T00:39:07.559Z,10.97
2018-05-18T00:40:07.619Z,10.95
2018-05-18T00:41:07.672Z,10.97
2018-05-18T00:42:07.698Z,10.95
2018-05-18T00:43:07.650Z,10.94
2018-05-18T00:44:07.655Z,10.94
2018-05-18T00:45:07.573Z,10.95
2018-05-18T00:46:07.690Z,10.93
2018-05-18T00:47:07.702Z,10.93
2018-05-18T00:48:07.623Z,10.95
2018-05-18T00:49:07.685Z,10.97
2018-05-18T00:50:07.653Z,10.95
2018-05-18T00:51:07.657Z,10.93
2018-05-18T00:52:07.645Z,10.93
2018-05-18T00:53:07.573Z,10.91
2018-05-18T00:54:07.576Z,10.93
2018-05-18T00:55:07.581Z,10.93
2018-05-18T00:56:07.565Z,10.93
2018-05-18T00:57:07.650Z,10.91
2018-05-18T00:58:07.766Z,10.90
2018-05-18T00:59:07.584Z,10.88
2018-05-18T01:00:07.596Z,10.88
2018-05-18T01:01:07.594Z,10.87
2018-05-18T01:02:07.665Z,10.87
2018-05-18T01:03:07.613Z,10.88
2018-05-18T01:04:07.670Z,10.87
2018-05-18T01:05:07.666Z,10.87
2018-05-18T01:06:07.607Z,10.88
2018-05-18T01:07:07.664Z,10.87
2018-05-18T01:08:07.613Z,10.86
2018-05-18T01:09:07.668Z,10.84
2018-05-18T01:10:07.676Z,10.84
2018-05-18T01:11:07.601Z,10.83
2018-05-18T01:12:07.663Z,10.83
2018-05-18T01:13:07.594Z,10.83
2018-05-18T01:14:07.715Z,10.81
2018-05-18T01:15:07.676Z,10.77
2018-05-18T01:16:07.637Z,10.77
2018-05-18T01:17:07.572Z,10.75
2018-05-18T01:18:07.674Z,10.75
2018-05-18T01:19:07.695Z,10.75
2018-05-18T01:20:07.660Z,10.74
2018-05-18T01:21:07.677Z,10.75
2018-05-18T01:22:07.640Z,10.74
2018-05-18T01:23:07.712Z,10.74
2018-05-18T01:24:07.696Z,10.74
2018-05-18T01:25:07.643Z,10.74
2018-05-18T01:26:07.640Z,10.72
2018-05-18T01:27:07.598Z,10.72
2018-05-18T01:28:07.709Z,10.74
2018-05-18T01:29:07.624Z,10.74
2018-05-18T01:30:07.645Z,10.75
2018-05-18T01:31:07.690Z,10.74
2018-05-18T01:32:07.679Z,10.74
2018-05-18T01:33:07.720Z,10.71
2018-05-18T01:34:07.613Z,10.71
2018-05-18T01:35:07.611Z,10.69
2018-05-18T01:36:07.644Z,10.68
2018-05-18T01:37:07.651Z,10.68
2018-05-18T01:38:07.665Z,10.68
2018-05-18T01:39:07.719Z,10.67
2018-05-18T01:40:07.657Z,10.65
2018-05-18T01:41:07.668Z,10.65
2018-05-18T01:42:07.635Z,10.64
2018-05-18T01:43:07.687Z,10.64
2018-05-18T01:44:07.628Z,10.64
2018-05-18T01:45:07.693Z,10.63
2018-05-18T01:46:07.751Z,10.64
2018-05-18T01:47:07.708Z,10.65
2018-05-18T01:48:07.590Z,10.64
2018-05-18T01:49:07.619Z,10.64
2018-05-18T01:50:07.692Z,10.61
2018-05-18T01:51:07.616Z,10.60
2018-05-18T01:52:07.619Z,10.60
2018-05-18T01:53:07.570Z,10.57
2018-05-18T01:54:07.690Z,10.57
2018-05-18T01:55:07.665Z,10.57
2018-05-18T01:56:07.695Z,10.56
2018-05-18T01:57:07.643Z,10.57
2018-05-18T01:58:07.692Z,10.56
2018-05-18T01:59:07.602Z,10.57
2018-05-18T02:00:07.699Z,10.57
2018-05-18T02:01:07.676Z,10.56
2018-05-18T02:02:07.737Z,10.54
2018-05-18T02:03:07.705Z,10.53
2018-05-18T02:04:07.649Z,10.50
2018-05-18T02:05:07.705Z,10.49
2018-05-18T02:06:07.734Z,10.49
2018-05-18T02:07:07.660Z,10.49
2018-05-18T02:08:07.607Z,10.50
2018-05-18T02:09:07.730Z,10.52
2018-05-18T02:10:07.609Z,10.50
2018-05-18T02:11:07.713Z,10.52
2018-05-18T02:12:07.647Z,10.53
2018-05-18T02:13:07.700Z,10.52
2018-05-18T02:14:07.583Z,10.52
2018-05-18T02:15:07.584Z,10.50
2018-05-18T02:16:07.705Z,10.52
2018-05-18T02:17:07.705Z,10.52
2018-05-18T02:18:07.733Z,10.49
2018-05-18T02:19:07.582Z,10.47
2018-05-18T02:20:07.774Z,10.47
2018-05-18T02:21:07.716Z,10.47
2018-05-18T02:22:07.747Z,10.46
2018-05-18T02:23:07.614Z,10.46
2018-05-18T02:24:07.750Z,10.45
2018-05-18T02:25:07.717Z,10.45
2018-05-18T02:26:07.739Z,10.43
2018-05-18T02:27:07.718Z,10.43
2018-05-18T02:28:07.724Z,10.42
2018-05-18T02:29:07.747Z,10.41
2018-05-18T02:30:07.761Z,10.42
2018-05-18T02:31:07.779Z,10.42
2018-05-18T02:32:07.641Z,10.41
2018-05-18T02:33:07.692Z,10.38
2018-05-18T02:34:07.685Z,10.36
2018-05-18T02:35:07.665Z,10.34
2018-05-18T02:36:07.753Z,10.34
2018-05-18T02:37:07.757Z,10.32
2018-05-18T02:38:07.633Z,10.31
2018-05-18T02:39:07.650Z,10.31
2018-05-18T02:40:07.700Z,10.31
2018-05-18T02:41:07.745Z,10.31
2018-05-18T02:42:07.709Z,10.27
2018-05-18T02:43:07.630Z,10.24
2018-05-18T02:44:07.639Z,10.23
2018-05-18T02:45:07.691Z,10.21
2018-05-18T02:46:07.636Z,10.21
2018-05-18T02:47:07.756Z,10.20
2018-05-18T02:48:07.718Z,10.20
2018-05-18T02:49:07.642Z,10.18
2018-05-18T02:50:07.735Z,10.16
2018-05-18T02:51:07.783Z,10.13
2018-05-18T02:52:07.771Z,10.16
2018-05-18T02:53:07.755Z,10.11
2018-05-18T02:54:07.733Z,10.11
2018-05-18T02:55:07.719Z,10.09
2018-05-18T02:56:07.735Z,10.13
2018-05-18T02:57:07.763Z,10.11
2018-05-18T02:58:07.763Z,10.13
2018-05-18T02:59:07.765Z,10.11
2018-05-18T03:00:07.675Z,10.11
2018-05-18T03:01:07.744Z,10.09
2018-05-18T03:02:07.740Z,10.08
2018-05-18T03:03:07.677Z,10.06
2018-05-18T03:04:07.748Z,10.08
2018-05-18T03:05:07.693Z,10.08
2018-05-18T03:06:07.700Z,10.08
2018-05-18T03:07:07.767Z,10.08
2018-05-18T03:08:07.770Z,10.09
2018-05-18T03:09:07.746Z,10.08
2018-05-18T03:10:07.764Z,10.05
2018-05-18T03:11:07.665Z,10.04
2018-05-18T03:12:07.744Z,10.05
2018-05-18T03:13:07.746Z,10.06
2018-05-18T03:14:07.749Z,10.04
2018-05-18T03:15:07.743Z,10.05
2018-05-18T03:16:07.743Z,10.05
2018-05-18T03:17:07.670Z,10.05
2018-05-18T03:18:07.748Z,10.04
2018-05-18T03:19:07.660Z,10.06
2018-05-18T03:20:07.688Z,10.05
2018-05-18T03:21:07.701Z,10.05
2018-05-18T03:22:07.689Z,10.06
2018-05-18T03:23:07.763Z,10.02
2018-05-18T03:24:07.718Z,10.00
2018-05-18T03:25:07.653Z,10.00
2018-05-18T03:26:07.758Z,9.97
2018-05-18T03:27:07.758Z,9.95
2018-05-18T03:28:07.692Z,9.95
2018-05-18T03:29:07.691Z,9.94
2018-05-18T03:30:07.763Z,9.94
2018-05-18T03:31:07.806Z,9.97
2018-05-18T03:32:07.701Z,9.97
2018-05-18T03:33:07.797Z,9.98
2018-05-18T03:34:07.768Z,9.98
2018-05-18T03:35:07.722Z,9.94
2018-05-18T03:36:07.766Z,9.91
2018-05-18T03:37:07.804Z,9.89
2018-05-18T03:38:07.764Z,9.87
2018-05-18T03:39:07.708Z,9.84
2018-05-18T03:40:07.771Z,9.84
2018-05-18T03:41:07.660Z,9.84
2018-05-18T03:42:07.774Z,9.83
2018-05-18T03:43:07.667Z,9.82
2018-05-18T03:44:07.775Z,9.80
2018-05-18T03:45:07.705Z,9.79
2018-05-18T03:46:07.770Z,9.79
2018-05-18T03:47:07.832Z,9.82
2018-05-18T03:48:07.652Z,9.83
2018-05-18T03:49:07.706Z,9.83
2018-05-18T03:50:07.706Z,9.82
2018-05-18T03:51:07.772Z,9.83
2018-05-18T03:52:07.772Z,9.82
2018-05-18T03:53:07.663Z,9.80
2018-05-18T03:54:07.748Z,9.80
2018-05-18T03:55:07.777Z,9.79
2018-05-18T03:56:07.705Z,9.79
2018-05-18T03:57:07.785Z,9.78
2018-05-18T03:58:07.797Z,9.78
2018-05-18T03:59:07.723Z,9.78
2018-05-18T04:00:07.779Z,9.73
2018-05-18T04:01:07.741Z,9.71
2018-05-18T04:02:07.683Z,9.69
2018-05-18T04:03:07.820Z,9.69
2018-05-18T04:04:07.720Z,9.65
2018-05-18T04:05:07.759Z,9.66
2018-05-18T04:06:07.801Z,9.66
2018-05-18T04:07:07.702Z,9.64
2018-05-18T04:08:07.750Z,9.62
2018-05-18T04:09:07.812Z,9.62
2018-05-18T04:10:07.786Z,9.62
2018-05-18T04:11:07.822Z,9.64
2018-05-18T04:12:07.793Z,9.62
2018-05-18T04:13:07.796Z,9.62
2018-05-18T04:14:07.714Z,9.62
2018-05-18T04:15:07.795Z,9.62
2018-05-18T04:16:07.764Z,9.64
2018-05-18T04:17:07.796Z,9.62
2018-05-18T04:18:07.799Z,9.62
2018-05-18T04:19:07.820Z,9.64
2018-05-18T04:20:07.789Z,9.66
2018-05-18T04:21:07.782Z,9.65
2018-05-18T04:22:07.788Z,9.64
2018-05-18T04:23:07.790Z,9.60
2018-05-18T04:24:07.787Z,9.61
2018-05-18T04:25:07.790Z,9.61
2018-05-18T04:26:07.699Z,9.58
2018-05-18T04:27:07.791Z,9.57
2018-05-18T04:28:07.745Z,9.54
2018-05-18T04:29:07.723Z,9.51
2018-05-18T04:30:07.803Z,9.50
2018-05-18T04:31:07.733Z,9.47
2018-05-18T04:32:07.808Z,9.44
2018-05-18T04:33:07.803Z,9.42
2018-05-18T04:34:07.800Z,9.39
2018-05-18T04:35:07.738Z,9.34
2018-05-18T04:36:07.811Z,9.34
2018-05-18T04:37:07.734Z,9.32
2018-05-18T04:38:07.804Z,9.30
2018-05-18T04:39:07.738Z,9.27
2018-05-18T04:40:07.874Z,9.27
2018-05-18T04:41:07.832Z,9.23
2018-05-18T04:42:07.823Z,9.23
2018-05-18T04:43:07.818Z,9.22
2018-05-18T04:44:07.728Z,9.22
2018-05-18T04:45:07.711Z,9.22
2018-05-18T04:46:07.859Z,9.20
2018-05-18T04:47:07.752Z,9.23
2018-05-18T04:48:07.846Z,9.25
2018-05-18T04:49:07.732Z,9.23
2018-05-18T04:50:07.738Z,9.23
2018-05-18T04:51:07.851Z,9.19
2018-05-18T04:52:07.808Z,9.18
2018-05-18T04:53:07.809Z,9.16
2018-05-18T04:54:07.767Z,9.16
2018-05-18T04:55:07.836Z,9.15
2018-05-18T04:56:07.847Z,9.13
2018-05-18T04:57:07.835Z,9.12
2018-05-18T04:58:07.776Z,9.11
2018-05-18T04:59:07.812Z,9.12
2018-05-18T05:00:07.775Z,9.15
2018-05-18T05:01:07.736Z,9.18
2018-05-18T05:02:07.814Z,9.18
2018-05-18T05:03:07.783Z,9.19
2018-05-18T05:04:07.817Z,9.20
2018-05-18T05:05:07.858Z,9.18
2018-05-18T05:06:07.854Z,9.20
2018-05-18T05:07:07.727Z,9.19
2018-05-18T05:08:07.721Z,9.22
2018-05-18T05:09:07.799Z,9.19
2018-05-18T05:10:07.781Z,9.19
2018-05-18T05:11:07.758Z,9.16
2018-05-18T05:12:07.821Z,9.13
2018-05-18T05:13:07.757Z,9.15
2018-05-18T05:14:07.830Z,9.15
2018-05-18T05:15:07.761Z,9.19
2018-05-18T05:16:07.825Z,9.20
2018-05-18T05:17:07.760Z,9.20
2018-05-18T05:18:07.877Z,9.20
2018-05-18T05:19:07.760Z,9.20
2018-05-18T05:20:07.831Z,9.19
2018-05-18T05:21:07.805Z,9.18
2018-05-18T05:22:07.827Z,9.15
2018-05-18T05:23:07.736Z,9.15
2018-05-18T05:24:07.730Z,9.16
2018-05-18T05:25:07.812Z,9.15
2018-05-18T05:26:07.828Z,9.16
2018-05-18T05:27:07.802Z,9.18
2018-05-18T05:28:07.792Z,9.18
2018-05-18T05:29:07.867Z,9.16
2018-05-18T05:30:07.885Z,9.18
2018-05-18T05:31:07.815Z,9.19
2018-05-18T05:32:07.808Z,9.19
2018-05-18T05:33:07.798Z,9.19
2018-05-18T05:34:07.793Z,9.20
2018-05-18T05:35:07.838Z,9.23
2018-05-18T05:36:07.838Z,9.22
2018-05-18T05:37:07.838Z,9.25
2018-05-18T05:38:07.742Z,9.27
2018-05-18T05:39:07.803Z,9.31
2018-05-18T05:40:07.825Z,9.28
2018-05-18T05:41:07.861Z,9.34
2018-05-18T05:42:07.744Z,9.32
2018-05-18T05:43:07.859Z,9.30
2018-05-18T05:44:07.877Z,9.28
2018-05-18T05:45:07.822Z,9.28
2018-05-18T05:46:07.806Z,9.31
2018-05-18T05:47:07.819Z,9.34
2018-05-18T05:48:07.885Z,9.34
2018-05-18T05:49:07.986Z,9.34
2018-05-18T05:50:07.880Z,9.36
2018-05-18T05:51:07.874Z,9.36
2018-05-18T05:52:07.824Z,9.39
2018-05-18T05:53:07.852Z,9.42
2018-05-18T05:54:07.822Z,9.43
2018-05-18T05:55:07.870Z,9.42
2018-05-18T05:56:07.851Z,9.38
2018-05-18T05:57:07.886Z,9.31
2018-05-18T05:58:07.850Z,9.31
2018-05-18T05:59:07.762Z,9.27
2018-05-18T06:00:07.888Z,9.25
2018-05-18T06:01:07.824Z,9.23
2018-05-18T06:02:07.891Z,9.23
2018-05-18T06:03:07.846Z,9.28
2018-05-18T06:04:07.862Z,9.30
2018-05-18T06:05:07.888Z,9.30
2018-05-18T06:06:07.893Z,9.34
2018-05-18T06:07:07.780Z,9.32
2018-05-18T06:08:07.759Z,9.30
2018-05-18T06:09:07.862Z,9.31
2018-05-18T06:10:07.852Z,9.34
2018-05-18T06:11:07.898Z,9.34
2018-05-18T06:12:07.822Z,9.34
2018-05-18T06:13:07.862Z,9.36
2018-05-18T06:14:07.862Z,9.32
2018-05-18T06:15:07.772Z,9.32
2018-05-18T06:16:07.783Z,9.32
2018-05-18T06:17:07.909Z,9.34
2018-05-18T06:18:07.844Z,9.34
2018-05-18T06:19:07.880Z,9.32
2018-05-18T06:20:07.770Z,9.34
2018-05-18T06:21:07.839Z,9.36
2018-05-18T06:22:07.811Z,9.39
2018-05-18T06:23:07.963Z,9.39
2018-05-18T06:24:07.887Z,9.36
2018-05-18T06:25:07.840Z,9.28
2018-05-18T06:26:07.889Z,9.27
2018-05-18T06:27:07.894Z,9.27
2018-05-18T06:28:07.871Z,9.23
2018-05-18T06:29:07.879Z,9.23
2018-05-18T06:30:07.874Z,9.19
2018-05-18T06:31:07.859Z,9.20
2018-05-18T06:32:07.903Z,9.22
2018-05-18T06:33:07.878Z,9.23
2018-05-18T06:34:07.877Z,9.28
2018-05-18T06:35:07.984Z,9.34
2018-05-18T06:36:07.875Z,9.30
2018-05-18T06:37:07.877Z,9.32
2018-05-18T06:38:07.854Z,9.28
2018-05-18T06:39:07.891Z,9.32
2018-05-18T06:40:07.878Z,9.28
2018-05-18T06:41:07.877Z,9.31
2018-05-18T06:42:07.882Z,9.32
2018-05-18T06:43:07.824Z,9.39
2018-05-18T06:44:07.909Z,9.36
2018-05-18T06:45:07.873Z,9.32
2018-05-18T06:46:07.811Z,9.39
2018-05-18T06:47:07.899Z,9.44
2018-05-18T06:48:07.859Z,9.44
2018-05-18T06:49:07.886Z,9.50
2018-05-18T06:50:07.858Z,9.54
2018-05-18T06:51:07.918Z,9.57
2018-05-18T06:52:07.902Z,9.57
2018-05-18T06:53:07.850Z,9.57
2018-05-18T06:54:07.845Z,9.61
2018-05-18T06:55:07.866Z,9.61
2018-05-18T06:56:07.923Z,9.68
2018-05-18T06:57:07.866Z,9.69
2018-05-18T06:58:07.905Z,9.73
2018-05-18T06:59:07.923Z,9.69
2018-05-18T07:00:07.877Z,9.69
2018-05-18T07:01:07.889Z,9.62
2018-05-18T07:02:07.931Z,9.62
2018-05-18T07:03:07.891Z,9.64
2018-05-18T07:04:08.047Z,9.61
2018-05-18T07:05:07.892Z,9.55
2018-05-18T07:06:07.831Z,9.55
2018-05-18T07:07:07.859Z,9.60
2018-05-18T07:08:07.899Z,9.60
2018-05-18T07:09:07.851Z,9.55
2018-05-18T07:10:07.896Z,9.58
2018-05-18T07:11:07.847Z,9.62
2018-05-18T07:12:07.848Z,9.68
2018-05-18T07:13:07.851Z,9.68
2018-05-18T07:14:07.749Z,9.66
2018-05-18T07:15:07.858Z,9.62
2018-05-18T07:16:07.757Z,9.62
2018-05-18T07:17:07.756Z,9.61
2018-05-18T07:18:07.753Z,9.64
2018-05-18T07:19:07.759Z,9.62
2018-05-18T07:20:07.757Z,9.62
2018-05-18T07:21:07.903Z,9.62
2018-05-18T07:22:07.943Z,9.62
2018-05-18T07:23:07.927Z,9.65
2018-05-18T07:24:07.837Z,9.65
2018-05-18T07:25:07.905Z,9.68
2018-05-18T07:26:07.843Z,9.71
2018-05-18T07:27:07.842Z,9.64
2018-05-18T07:28:07.912Z,9.66
2018-05-18T07:29:07.907Z,9.65
2018-05-18T07:30:08.020Z,9.58
2018-05-18T07:31:07.932Z,9.60
2018-05-18T07:32:07.945Z,9.55
2018-05-18T07:33:07.939Z,9.54
2018-05-18T07:34:07.904Z,9.55
2018-05-18T07:35:07.928Z,9.54
2018-05-18T07:36:07.880Z,9.53
2018-05-18T07:37:07.949Z,9.47
2018-05-18T07:38:07.947Z,9.44
2018-05-18T07:39:07.817Z,9.47
2018-05-18T07:40:07.960Z,9.47
2018-05-18T07:41:07.918Z,9.50
2018-05-18T07:42:07.920Z,9.54
2018-05-18T07:43:07.854Z,9.58
2018-05-18T07:44:07.920Z,9.61
2018-05-18T07:45:07.857Z,9.65
2018-05-18T07:46:07.854Z,9.71
2018-05-18T07:47:07.929Z,9.69
2018-05-18T07:48:07.927Z,9.68
2018-05-18T07:49:07.871Z,9.66
2018-05-18T07:50:07.933Z,9.71
2018-05-18T07:51:07.837Z,9.71
2018-05-18T07:52:08.920Z,9.72
2018-05-18T07:53:07.827Z,9.73
2018-05-18T07:54:07.967Z,9.76
2018-05-18T07:55:07.930Z,9.79
2018-05-18T07:56:07.926Z,9.76
2018-05-18T07:57:07.960Z,9.82
2018-05-18T07:58:07.931Z,9.86
2018-05-18T07:59:07.967Z,9.87
2018-05-18T08:00:07.891Z,9.95
2018-05-18T08:01:07.839Z,10.00
2018-05-18T08:02:07.940Z,10.04
2018-05-18T08:03:07.860Z,9.98
2018-05-18T08:04:07.902Z,9.94
2018-05-18T08:05:07.855Z,9.93
2018-05-18T08:06:07.934Z,9.91
2018-05-18T08:07:07.846Z,9.93
2018-05-18T08:08:07.956Z,9.94
2018-05-18T08:09:07.912Z,9.98
2018-05-18T08:10:07.861Z,10.00
2018-05-18T08:11:07.871Z,9.93
2018-05-18T08:12:07.892Z,9.95
2018-05-18T08:13:07.940Z,9.98
2018-05-18T08:14:07.879Z,10.02
2018-05-18T08:15:07.949Z,10.08
2018-05-18T08:16:07.882Z,10.11
2018-05-18T08:17:07.878Z,10.16
2018-05-18T08:18:07.940Z,10.09
2018-05-18T08:19:07.828Z,10.04
2018-05-18T08:20:07.946Z,10.01
2018-05-18T08:21:07.878Z,10.01
2018-05-18T08:22:07.878Z,10.02
2018-05-18T08:23:07.947Z,10.05
2018-05-18T08:24:07.884Z,10.05
2018-05-18T08:25:07.882Z,10.05
2018-05-18T08:26:07.951Z,10.08
2018-05-18T08:27:07.882Z,10.14
2018-05-18T08:28:07.950Z,10.14
2018-05-18T08:29:07.903Z,10.13
2018-05-18T08:30:07.955Z,10.08
2018-05-18T08:31:07.922Z,10.06
2018-05-18T08:32:07.969Z,10.09
2018-05-18T08:33:07.918Z,10.13
2018-05-18T08:34:07.971Z,10.14
2018-05-18T08:35:07.973Z,10.14
2018-05-18T08:36:07.916Z,10.09
2018-05-18T08:37:07.894Z,10.16
2018-05-18T08:38:07.991Z,10.17
2018-05-18T08:39:07.869Z,10.18
2018-05-18T08:40:07.923Z,10.20
2018-05-18T08:41:07.848Z,10.23
2018-05-18T08:42:07.879Z,10.17
2018-05-18T08:43:07.866Z,10.16
2018-05-18T08:44:07.953Z,10.16
2018-05-18T08:45:07.958Z,10.16
2018-05-18T08:46:07.949Z,10.20
2018-05-18T08:47:07.838Z,10.23
2018-05-18T08:48:07.897Z,10.23
2018-05-18T08:49:07.869Z,10.16
2018-05-18T08:50:07.961Z,10.11
2018-05-18T08:51:07.898Z,10.11
2018-05-18T08:52:07.904Z,10.11
2018-05-18T08:53:07.931Z,10.14
2018-05-18T08:54:07.939Z,10.14
2018-05-18T08:55:07.973Z,10.13
2018-05-18T08:56:07.969Z,10.17
2018-05-18T08:57:07.938Z,10.20
2018-05-18T08:58:07.872Z,10.18
2018-05-18T08:59:07.902Z,10.16
2018-05-18T09:00:07.972Z,10.13
2018-05-18T09:01:07.968Z,10.13
2018-05-18T09:02:07.916Z,10.17
2018-05-18T09:03:07.971Z,10.23
2018-05-18T09:04:07.904Z,10.28
2018-05-18T09:05:07.981Z,10.39
2018-05-18T09:06:07.913Z,10.53
2018-05-18T09:07:07.915Z,10.61
2018-05-18T09:08:07.906Z,10.71
2018-05-18T09:09:07.979Z,10.72
2018-05-18T09:10:07.909Z,10.67
2018-05-18T09:11:08.012Z,10.54
2018-05-18T09:12:08.015Z,10.53
2018-05-18T09:13:07.896Z,10.53
2018-05-18T09:14:07.958Z,10.49
2018-05-18T09:15:07.880Z,10.50
2018-05-18T09:16:08.003Z,10.53
2018-05-18T09:17:07.992Z,10.54
2018-05-18T09:18:08.002Z,10.63
2018-05-18T09:19:07.881Z,10.68
2018-05-18T09:20:08.028Z,10.72
2018-05-18T09:21:07.889Z,10.75
2018-05-18T09:22:07.929Z,10.75
2018-05-18T09:23:07.893Z,10.67
2018-05-18T09:24:07.980Z,10.60
2018-05-18T09:25:07.875Z,10.50
2018-05-18T09:26:07.938Z,10.47
2018-05-18T09:27:07.979Z,10.45
2018-05-18T09:28:07.978Z,10.47
2018-05-18T09:29:08.010Z,10.43
2018-05-18T09:30:07.925Z,10.43
2018-05-18T09:31:08.009Z,10.47
2018-05-18T09:32:08.046Z,10.46
2018-05-18T09:33:07.950Z,10.52
2018-05-18T09:34:08.050Z,10.49
2018-05-18T09:35:07.996Z,10.52
2018-05-18T09:36:08.023Z,10.53
2018-05-18T09:37:07.954Z,10.52
2018-05-18T09:38:07.899Z,10.60
2018-05-18T09:39:08.024Z,10.57
2018-05-18T09:40:08.035Z,10.49
2018-05-18T09:41:07.993Z,10.47
2018-05-18T09:42:07.998Z,10.54
2018-05-18T09:43:07.881Z,10.63
2018-05-18T09:44:08.002Z,10.67
2018-05-18T09:45:08.002Z,10.68
2018-05-18T09:46:07.932Z,10.74
2018-05-18T09:47:07.938Z,10.83
2018-05-18T09:48:08.006Z,10.93
2018-05-18T09:49:07.937Z,10.94
2018-05-18T09:50:08.003Z,10.94
2018-05-18T09:51:08.006Z,10.90
2018-05-18T09:52:07.937Z,10.80
2018-05-18T09:53:08.004Z,10.90
2018-05-18T09:54:08.143Z,10.95
2018-05-18T09:55:08.261Z,10.91
2018-05-18T09:56:08.008Z,10.93
2018-05-18T09:57:07.942Z,10.97
2018-05-18T09:58:07.938Z,11.05
2018-05-18T09:59:07.964Z,11.05
2018-05-18T10:00:07.937Z,11.06
2018-05-18T10:01:08.049Z,11.11
2018-05-18T10:02:08.010Z,11.07
2018-05-18T10:03:07.907Z,11.13
2018-05-18T10:04:07.970Z,11.14
2018-05-18T10:05:07.970Z,11.10
2018-05-18T10:06:08.016Z,11.18
2018-05-18T10:07:07.977Z,11.17
2018-05-18T10:08:08.034Z,11.21
2018-05-18T10:09:07.918Z,11.14
2018-05-18T10:10:08.032Z,11.09
2018-05-18T10:11:08.013Z,11.17
2018-05-18T10:12:08.015Z,11.20
2018-05-18T10:13:08.015Z,11.21
2018-05-18T10:14:07.975Z,11.28
2018-05-18T10:15:08.019Z,11.35
2018-05-18T10:16:07.958Z,11.38
2018-05-18T10:17:08.025Z,11.50
2018-05-18T10:18:07.951Z,11.45
2018-05-18T10:19:08.058Z,11.40
2018-05-18T10:20:08.022Z,11.45
2018-05-18T10:21:07.930Z,11.50
2018-05-18T10:22:07.973Z,11.45
2018-05-18T10:23:07.991Z,11.29
2018-05-18T10:24:08.045Z,11.24
2018-05-18T10:25:08.053Z,11.29
2018-05-18T10:26:07.988Z,11.28
2018-05-18T10:27:07.980Z,11.38
2018-05-18T10:28:08.051Z,11.49
2018-05-18T10:29:07.983Z,11.56
2018-05-18T10:30:08.048Z,11.64
2018-05-18T10:31:08.007Z,11.67
2018-05-18T10:32:07.989Z,11.71
2018-05-18T10:33:08.053Z,11.78
2018-05-18T10:34:07.990Z,11.76
2018-05-18T10:35:07.932Z,11.62
2018-05-18T10:36:07.936Z,11.50
2018-05-18T10:37:07.952Z,11.46
2018-05-18T10:38:08.053Z,11.40
2018-05-18T10:39:08.018Z,11.45
2018-05-18T10:40:08.058Z,11.58
2018-05-18T10:41:08.052Z,11.57
2018-05-18T10:42:08.080Z,11.64
2018-05-18T10:43:08.008Z,11.65
2018-05-18T10:44:08.023Z,11.58
2018-05-18T10:45:07.995Z,11.46
2018-05-18T10:46:07.966Z,11.45
2018-05-18T10:47:08.009Z,11.38
2018-05-18T10:48:08.076Z,11.32
2018-05-18T10:49:08.018Z,11.28
2018-05-18T10:50:08.124Z,11.27
2018-05-18T10:51:08.024Z,11.35
2018-05-18T10:52:08.074Z,11.39
2018-05-18T10:53:08.082Z,11.40
2018-05-18T10:54:08.056Z,11.47
2018-05-18T10:55:08.044Z,11.43
2018-05-18T10:56:07.927Z,11.39
2018-05-18T10:57:07.978Z,11.38
2018-05-18T10:58:08.043Z,11.39
2018-05-18T10:59:08.049Z,11.36
2018-05-18T11:00:08.007Z,11.36
2018-05-18T11:01:07.981Z,11.43
2018-05-18T11:02:08.053Z,11.47
2018-05-18T11:03:08.069Z,11.54
2018-05-18T11:04:07.948Z,11.58
2018-05-18T11:05:07.958Z,11.51
2018-05-18T11:06:08.016Z,11.56
2018-05-18T11:07:08.053Z,11.61
2018-05-18T11:08:08.023Z,11.45
2018-05-18T11:09:08.070Z,11.54
2018-05-18T11:10:08.075Z,11.62
2018-05-18T11:11:08.074Z,11.72
2018-05-18T11:12:08.162Z,11.76
2018-05-18T11:13:08.088Z,11.84
2018-05-18T11:14:08.102Z,11.72
2018-05-18T11:15:08.058Z,11.69
2018-05-18T11:16:08.057Z,11.76
2018-05-18T11:17:08.032Z,11.89
2018-05-18T11:18:08.018Z,11.99
2018-05-18T11:19:08.053Z,12.08
2018-05-18T11:20:08.018Z,12.09
2018-05-18T11:21:08.084Z,12.12
2018-05-18T11:22:08.039Z,12.06
2018-05-18T11:23:08.102Z,12.08
2018-05-18T11:24:08.041Z,12.10
2018-05-18T11:25:07.995Z,12.10
2018-05-18T11:26:08.101Z,12.12
2018-05-18T11:27:08.105Z,12.01
2018-05-18T11:28:07.968Z,12.12
2018-05-18T11:29:08.088Z,12.02
2018-05-18T11:30:08.034Z,11.89
2018-05-18T11:31:08.087Z,11.94
2018-05-18T11:32:08.070Z,12.02
2018-05-18T11:33:08.050Z,12.09
2018-05-18T11:34:08.071Z,12.25
2018-05-18T11:35:08.052Z,12.31
2018-05-18T11:36:08.146Z,12.31
2018-05-18T11:37:07.978Z,12.25
2018-05-18T11:38:07.967Z,12.26
2018-05-18T11:39:08.101Z,12.29
2018-05-18T11:40:08.050Z,12.43
2018-05-18T11:41:08.037Z,12.55
2018-05-18T11:42:08.008Z,12.61
2018-05-18T11:43:08.075Z,12.62
2018-05-18T11:44:08.079Z,12.66
2018-05-18T11:45:08.008Z,12.66
2018-05-18T11:46:08.075Z,12.79
2018-05-18T11:47:08.012Z,12.82
2018-05-18T11:48:08.163Z,12.79
2018-05-18T11:49:08.087Z,12.61
2018-05-18T11:50:08.013Z,12.55
2018-05-18T11:51:08.086Z,12.58
2018-05-18T11:52:08.052Z,12.61
2018-05-18T11:53:08.220Z,12.55
2018-05-18T11:54:08.039Z,12.50
2018-05-18T11:55:08.117Z,12.46
2018-05-18T11:56:07.986Z,12.33
2018-05-18T11:57:08.107Z,12.33
2018-05-18T11:58:08.121Z,12.36
2018-05-18T11:59:08.052Z,12.28
2018-05-18T12:00:08.009Z,12.25
2018-05-18T12:01:08.128Z,12.32
2018-05-18T12:02:08.045Z,12.36
2018-05-18T12:03:08.090Z,12.39
2018-05-18T12:04:08.043Z,12.35
2018-05-18T12:05:08.042Z,12.42
2018-05-18T12:06:08.076Z,12.43
2018-05-18T12:07:08.021Z,12.48
2018-05-18T12:08:08.193Z,12.54
2018-05-18T12:09:07.977Z,12.58
2018-05-18T12:10:08.001Z,12.62
2018-05-18T12:11:07.978Z,12.76
2018-05-18T12:12:08.153Z,12.95
2018-05-18T12:13:08.028Z,12.99
2018-05-18T12:14:08.133Z,12.91
2018-05-18T12:15:08.029Z,12.91
2018-05-18T12:16:08.101Z,12.92
2018-05-18T12:17:08.120Z,12.86
2018-05-18T12:18:07.992Z,12.82
2018-05-18T12:19:08.104Z,12.76
2018-05-18T12:20:08.034Z,12.83
2018-05-18T12:21:08.036Z,12.87
2018-05-18T12:22:08.100Z,12.98
2018-05-18T12:23:08.034Z,13.03
2018-05-18T12:24:08.104Z,12.96
2018-05-18T12:25:08.041Z,13.12
2018-05-18T12:26:08.202Z,13.13
2018-05-18T12:27:08.170Z,13.27
2018-05-18T12:28:08.166Z,13.28
2018-05-18T12:29:08.108Z,13.43
2018-05-18T12:30:08.040Z,13.42
2018-05-18T12:31:08.058Z,13.40
2018-05-18T12:32:08.108Z,13.45
2018-05-18T12:33:08.124Z,13.47
2018-05-18T12:34:08.138Z,13.45
2018-05-18T12:35:08.075Z,13.49
2018-05-18T12:36:08.150Z,13.46
2018-05-18T12:37:08.153Z,13.45
2018-05-18T12:38:08.129Z,13.29
2018-05-18T12:39:08.074Z,13.36
2018-05-18T12:40:08.153Z,13.42
2018-05-18T12:41:08.139Z,13.46
2018-05-18T12:42:08.117Z,13.49
2018-05-18T12:43:08.059Z,13.62
2018-05-18T12:44:08.125Z,13.56
2018-05-18T12:45:08.149Z,13.49
2018-05-18T12:46:08.125Z,13.57
2018-05-18T12:47:08.052Z,13.72
2018-05-18T12:48:08.129Z,13.73
2018-05-18T12:49:08.118Z,13.72
2018-05-18T12:50:08.172Z,13.73
2018-05-18T12:51:08.077Z,13.77
2018-05-18T12:52:08.120Z,13.77
2018-05-18T12:53:08.120Z,13.91
2018-05-18T12:54:08.161Z,14.09
2018-05-18T12:55:08.052Z,14.15
2018-05-18T12:56:08.125Z,14.17
2018-05-18T12:57:08.075Z,14.17
2018-05-18T12:58:08.055Z,14.10
2018-05-18T12:59:08.123Z,14.07
2018-05-18T13:00:08.123Z,14.07
2018-05-18T13:01:08.091Z,14.14